Time;durP1;ratioP1;P1;durP2;ratioP2;P2;SDS_P1;SDS_P2;PMS_P1;PMS_P2;Temp;Humidity;BMP_temperature;BMP_pressure;BME280_temperature;BME280_humidity;BME280_pressure;Samples;Min_cycle;Max_cycle;Signal;HPM_P1;HPM_P2
2022/09/08 00:00:50;;;;;;;8.20;7.32;;;;;;;17.53;100.00;100487.56;5031728;28;20029;-73
2022/09/08 00:03:17;;;;;;;9.43;7.38;;;;;;;17.42;100.00;100446.06;5032840;28;20052;-73
2022/09/08 00:06:03;;;;;;;10.98;7.32;;;;;;;17.37;100.00;100441.16;5032949;28;20114;-73
2022/09/08 00:08:30;;;;;;;8.57;7.18;;;;;;;17.30;100.00;100460.34;5032972;28;20033;-73
2022/09/08 00:10:58;;;;;;;8.25;6.82;;;;;;;16.93;100.00;100419.31;5031411;28;20095;-73
2022/09/08 00:13:26;;;;;;;9.60;7.03;;;;;;;17.91;100.00;100495.06;5031595;28;20063;-73
2022/09/08 00:15:54;;;;;;;8.50;6.68;;;;;;;17.57;100.00;100438.47;5032851;28;20468;-73
2022/09/08 00:18:20;;;;;;;9.00;6.90;;;;;;;17.70;100.00;100495.28;5032465;28;20033;-73
2022/09/08 00:20:45;;;;;;;8.80;6.97;;;;;;;17.82;100.00;100507.53;5032882;28;20423;-74
2022/09/08 00:23:11;;;;;;;9.82;7.00;;;;;;;17.29;100.00;100448.41;5031471;28;20030;-73
2022/09/08 00:25:37;;;;;;;9.23;6.55;;;;;;;17.40;100.00;100450.44;5032431;28;20112;-73
2022/09/08 00:28:02;;;;;;;11.25;6.88;;;;;;;17.84;100.00;100508.31;5032554;28;20014;-73
2022/09/08 00:30:28;;;;;;;8.68;6.78;;;;;;;17.56;100.00;100520.84;5032304;28;20041;-74
2022/09/08 00:32:53;;;;;;;7.57;6.57;;;;;;;16.73;100.00;100371.44;5031151;28;20055;-73
2022/09/08 00:35:19;;;;;;;10.05;6.28;;;;;;;17.04;100.00;100456.44;5032206;28;20021;-74
2022/09/08 00:37:46;;;;;;;8.70;6.68;;;;;;;16.90;100.00;100435.69;5031025;28;20029;-73
2022/09/08 00:40:12;;;;;;;8.13;6.10;;;;;;;17.16;100.00;100440.44;5032424;28;20021;-73
2022/09/08 00:42:37;;;;;;;10.00;6.38;;;;;;;17.58;100.00;100457.31;5030751;28;20036;-73
2022/09/08 00:45:03;;;;;;;12.18;6.85;;;;;;;17.03;100.00;100423.97;5031590;28;20530;-74
2022/09/08 00:47:33;;;;;;;8.38;6.72;;;;;;;17.15;100.00;100504.78;5032213;28;20121;-74
2022/09/08 00:50:09;;;;;;;8.20;6.80;;;;;;;17.33;100.00;100499.59;5031734;28;20060;-74
2022/09/08 00:52:50;;;;;;;8.52;6.45;;;;;;;17.02;100.00;100442.84;5032306;28;20071;-74
2022/09/08 00:55:18;;;;;;;9.35;6.65;;;;;;;16.92;100.00;100422.78;5032364;28;20033;-73
2022/09/08 00:57:43;;;;;;;10.13;6.38;;;;;;;17.04;100.00;100491.56;5031819;28;20091;-73
2022/09/08 01:00:12;;;;;;;9.15;6.60;;;;;;;16.38;100.00;100418.41;5032073;28;20037;-73
2022/09/08 01:02:38;;;;;;;7.55;6.75;;;;;;;16.73;100.00;100443.34;5031903;28;20179;-73
2022/09/08 01:05:15;;;;;;;7.80;6.07;;;;;;;17.15;100.00;100425.91;5031983;28;20033;-72
2022/09/08 01:13:58;;;;;;;8.85;6.65;;;;;;;16.89;100.00;100498.25;5031064;28;20064;-73
2022/09/08 01:16:24;;;;;;;11.70;7.00;;;;;;;16.76;100.00;100489.41;5030249;28;20039;-73
2022/09/08 01:18:50;;;;;;;8.32;6.80;;;;;;;17.04;100.00;100477.00;5030455;28;20030;-74
2022/09/08 01:21:40;;;;;;;10.13;7.20;;;;;;;16.97;100.00;100491.03;5030020;28;20056;-73
2022/09/08 01:24:18;;;;;;;9.43;7.45;;;;;;;16.28;100.00;100396.63;5031268;28;20459;-72
2022/09/08 01:27:02;;;;;;;8.82;7.32;;;;;;;16.57;100.00;100492.88;5030023;28;20040;-73
2022/09/08 01:29:28;;;;;;;8.80;7.43;;;;;;;15.93;100.00;100381.94;5030058;28;20029;-73
2022/09/08 01:31:53;;;;;;;9.05;8.10;;;;;;;16.77;100.00;100475.69;5030309;28;20040;-73
2022/09/08 01:34:19;;;;;;;12.63;8.60;;;;;;;16.51;100.00;100475.19;5031213;28;20496;-73
2022/09/08 01:36:45;;;;;;;9.05;7.13;;;;;;;16.10;100.00;100416.19;5031365;28;20482;-73
2022/09/08 01:39:10;;;;;;;11.27;8.07;;;;;;;17.03;100.00;100465.06;5030213;28;20039;-73
2022/09/08 01:41:38;;;;;;;12.38;7.93;;;;;;;16.83;100.00;100478.00;5030342;28;20034;-73
2022/09/08 01:44:03;;;;;;;10.98;8.30;;;;;;;16.43;100.00;100471.19;5029786;28;20230;-72
2022/09/08 01:46:30;;;;;;;9.55;7.90;;;;;;;16.67;100.00;100473.59;5030776;28;20061;-73
2022/09/08 01:48:55;;;;;;;11.65;7.88;;;;;;;15.44;100.00;100334.50;5030742;28;20036;-72
2022/09/08 01:51:20;;;;;;;9.95;7.70;;;;;;;16.57;100.00;100434.69;5030652;28;20033;-73
2022/09/08 01:53:46;;;;;;;9.07;7.30;;;;;;;15.55;100.00;100351.06;5029102;28;20045;-73
2022/09/08 01:56:11;;;;;;;8.77;7.88;;;;;;;16.32;100.00;100470.00;5030690;28;20029;-72
2022/09/08 01:58:37;;;;;;;9.05;7.65;;;;;;;16.29;100.00;100463.25;5030727;28;20117;-72
2022/09/08 02:01:02;;;;;;;9.45;7.80;;;;;;;15.89;100.00;100365.84;5030710;28;20038;-72
2022/09/08 02:03:28;;;;;;;9.02;7.63;;;;;;;16.38;100.00;100439.75;5030766;28;20053;-72
2022/09/08 02:05:58;;;;;;;10.18;7.95;;;;;;;16.24;100.00;100403.59;5029771;28;20033;-73
2022/09/08 02:08:24;;;;;;;10.73;7.88;;;;;;;16.51;100.00;100439.25;5029493;28;20045;-72
2022/09/08 02:10:55;;;;;;;11.30;7.72;;;;;;;16.10;100.00;100415.38;5029620;28;20030;-73
2022/09/08 02:13:21;;;;;;;8.98;7.18;;;;;;;16.54;100.00;100452.78;5031415;28;20079;-73
2022/09/08 02:15:46;;;;;;;8.65;7.75;;;;;;;16.00;100.00;100386.75;5031029;28;20134;-72
2022/09/08 02:18:12;;;;;;;9.23;7.80;;;;;;;15.95;100.00;100446.81;5030515;28;20032;-72
2022/09/08 02:20:37;;;;;;;9.18;7.57;;;;;;;16.02;100.00;100413.16;5031076;28;20040;-73
2022/09/08 02:23:03;;;;;;;9.38;8.13;;;;;;;15.97;100.00;100376.59;5030869;28;20033;-72
2022/09/08 02:25:28;;;;;;;9.63;8.63;;;;;;;16.42;100.00;100455.84;5030844;28;20033;-73
2022/09/08 02:27:54;;;;;;;8.60;7.68;;;;;;;16.22;100.00;100435.38;5030760;28;20053;-71
2022/09/08 02:30:20;;;;;;;9.88;7.95;;;;;;;16.13;100.00;100448.59;5033307;28;20026;-73
2022/09/08 02:32:45;;;;;;;9.95;8.57;;;;;;;15.79;100.00;100376.56;5050722;28;20485;-73
2022/09/08 02:35:11;;;;;;;12.50;8.32;;;;;;;16.32;100.00;100457.97;5050841;28;20037;-73
2022/09/08 02:37:36;;;;;;;11.13;8.00;;;;;;;16.38;100.00;100449.22;5050239;28;20036;-72
2022/09/08 02:40:03;;;;;;;11.20;8.40;;;;;;;15.24;100.00;100353.22;5050932;28;20032;-73
2022/09/08 02:42:29;;;;;;;10.85;7.82;;;;;;;15.76;100.00;100386.97;5050389;28;20029;-73
2022/09/08 02:44:54;;;;;;;9.82;7.75;;;;;;;16.02;100.00;100373.84;5050381;28;20036;-72
2022/09/08 02:47:20;;;;;;;13.15;9.00;;;;;;;16.03;100.00;100396.84;5050569;28;20078;-73
2022/09/08 02:49:45;;;;;;;8.88;7.60;;;;;;;15.75;100.00;100300.69;5050350;28;20055;-73
2022/09/08 02:52:11;;;;;;;10.07;7.97;;;;;;;15.42;100.00;100339.69;5051083;28;20423;-73
2022/09/08 02:54:37;;;;;;;12.00;8.13;;;;;;;15.88;100.00;100423.19;5054158;28;20044;-73
2022/09/08 02:57:03;;;;;;;9.77;7.90;;;;;;;15.76;100.00;100316.00;5052946;28;20025;-72
2022/09/08 02:59:28;;;;;;;10.60;8.05;;;;;;;16.01;100.00;100426.88;5052644;28;20021;-73
2022/09/08 03:01:54;;;;;;;11.88;8.25;;;;;;;15.73;100.00;100367.41;5054141;28;20040;-71
2022/09/08 03:04:20;;;;;;;10.30;8.25;;;;;;;15.82;100.00;100391.81;5054178;28;20033;-71
2022/09/08 03:06:45;;;;;;;11.30;8.18;;;;;;;16.12;100.00;100431.53;5054164;28;20029;-72
2022/09/08 03:09:12;;;;;;;11.90;7.68;;;;;;;15.65;100.00;100363.50;5054006;28;20090;-71
2022/09/08 03:11:38;;;;;;;10.85;8.00;;;;;;;16.21;100.00;100428.56;5052739;28;20107;-72
2022/09/08 03:14:03;;;;;;;14.00;7.97;;;;;;;16.09;100.00;100418.84;5053642;28;20035;-71
2022/09/08 03:16:29;;;;;;;14.13;7.57;;;;;;;15.49;100.00;100330.84;5052548;28;20040;-72
2022/09/08 03:18:55;;;;;;;10.13;8.10;;;;;;;16.24;100.00;100420.75;5051937;28;20024;-71
2022/09/08 03:21:20;;;;;;;11.35;8.65;;;;;;;15.15;100.00;100338.22;5053673;28;20036;-76
2022/09/08 03:23:46;;;;;;;12.38;9.32;;;;;;;15.83;100.00;100390.91;5053633;28;20115;-75
2022/09/08 03:26:17;;;;;;;11.25;9.55;;;;;;;15.75;100.00;100369.91;5054175;28;20033;-73
2022/09/08 03:28:44;;;;;;;13.80;10.25;;;;;;;16.00;100.00;100443.19;5053601;28;20116;-73
2022/09/08 03:31:15;;;;;;;13.38;10.35;;;;;;;15.22;100.00;100372.09;5045473;28;20419;-73
2022/09/08 03:33:41;;;;;;;14.77;10.43;;;;;;;15.20;100.00;100353.41;5042081;28;20033;-72
2022/09/08 03:36:09;;;;;;;16.77;10.20;;;;;;;15.30;100.00;100340.16;5051752;28;20430;-73
2022/09/08 03:38:35;;;;;;;12.93;10.55;;;;;;;16.80;100.00;100449.84;5053647;28;20028;-73
2022/09/08 03:41:09;;;;;;;12.73;10.55;;;;;;;15.87;100.00;100446.28;5053419;28;20060;-74
2022/09/08 03:43:35;;;;;;;15.95;10.60;;;;;;;15.63;100.00;100445.59;5052751;28;20033;-76
2022/09/08 03:46:05;;;;;;;13.25;9.25;;;;;;;15.42;100.00;100356.78;5053514;28;20086;-75
2022/09/08 03:48:32;;;;;;;15.38;10.30;;;;;;;15.50;100.00;100376.06;5053691;28;20033;-78
2022/09/08 03:51:16;;;;;;;26.55;13.40;;;;;;;15.62;100.00;100451.63;5052259;28;20398;-74
2022/09/08 03:53:43;;;;;;;21.15;13.20;;;;;;;16.21;100.00;100462.75;5053992;28;20049;-75
2022/09/08 03:56:10;;;;;;;17.48;11.73;;;;;;;16.03;100.00;100457.56;5051999;28;20120;-71
2022/09/08 03:58:37;;;;;;;15.63;10.52;;;;;;;16.09;100.00;100364.97;5051642;28;20029;-73
2022/09/08 04:01:15;;;;;;;17.95;10.73;;;;;;;15.48;100.00;100385.56;5052749;28;20132;-74
2022/09/08 04:03:41;;;;;;;15.60;10.40;;;;;;;15.89;100.00;100454.75;5051774;28;20097;-72
2022/09/08 04:06:09;;;;;;;18.35;10.77;;;;;;;15.44;100.00;100455.78;5051015;28;20410;-73
2022/09/08 04:08:35;;;;;;;18.58;10.35;;;;;;;15.74;100.00;100381.91;5052699;28;20029;-74
2022/09/08 04:11:00;;;;;;;22.75;10.48;;;;;;;16.00;100.00;100452.59;5051554;28;20487;-74
2022/09/08 04:13:26;;;;;;;22.77;11.75;;;;;;;15.47;100.00;100437.69;5051477;28;20100;-74
2022/09/08 04:15:52;;;;;;;26.77;11.80;;;;;;;15.15;100.00;100386.88;5053130;28;20033;-73
2022/09/08 04:18:18;;;;;;;23.60;11.02;;;;;;;15.44;100.00;100353.28;5051652;28;20029;-73
2022/09/08 04:20:43;;;;;;;31.08;11.10;;;;;;;16.17;100.00;100415.03;5051995;28;20494;-73
2022/09/08 04:23:09;;;;;;;24.10;11.18;;;;;;;15.47;100.00;100439.41;5051473;28;20029;-74
2022/09/08 04:25:34;;;;;;;19.67;11.18;;;;;;;15.70;100.00;100457.28;5051404;28;20021;-76
2022/09/08 04:28:00;;;;;;;17.67;10.70;;;;;;;16.13;100.00;100458.84;5052916;28;20483;-74
2022/09/08 04:30:25;;;;;;;19.20;11.02;;;;;;;15.69;100.00;100463.28;5051952;28;20033;-78
2022/09/08 04:32:51;;;;;;;20.13;10.15;;;;;;;16.27;100.00;100451.41;5049198;28;20029;-75
2022/09/08 04:35:16;;;;;;;24.02;11.23;;;;;;;17.43;100.00;100466.56;5052828;28;20033;-74
2022/09/08 04:37:42;;;;;;;22.33;11.52;;;;;;;16.76;100.00;100403.84;5051676;28;20120;-75
2022/09/08 04:40:08;;;;;;;22.23;13.43;;;;;;;17.32;100.00;100473.97;5050841;28;20036;-74
2022/09/08 04:42:35;;;;;;;16.90;10.88;;;;;;;17.21;100.00;100366.50;5050207;28;20033;-76
2022/09/08 04:45:01;;;;;;;13.57;10.00;;;;;;;17.08;100.00;100487.94;5051995;28;20021;-77
2022/09/08 04:47:26;;;;;;;12.77;9.80;;;;;;;16.22;100.00;100446.47;5052032;28;20360;-76
2022/09/08 04:49:53;;;;;;;10.98;9.60;;;;;;;15.74;100.00;100412.66;5039222;28;20025;-76
2022/09/08 04:52:20;;;;;;;12.85;9.75;;;;;;;16.15;100.00;100483.56;5031998;28;20045;-76
2022/09/08 04:54:46;;;;;;;14.68;9.52;;;;;;;15.83;100.00;100447.31;5029740;28;20497;-76
2022/09/08 04:57:12;;;;;;;12.88;9.60;;;;;;;16.10;100.00;100459.00;5032312;28;20026;-76
2022/09/08 04:59:37;;;;;;;13.23;9.25;;;;;;;15.94;100.00;100427.19;5032334;28;20021;-75
2022/09/08 05:02:03;;;;;;;16.48;9.02;;;;;;;16.36;100.00;100502.34;5030682;28;20095;-76
2022/09/08 05:04:28;;;;;;;18.17;9.60;;;;;;;16.49;100.00;100498.34;5030611;28;20036;-77
2022/09/08 05:06:54;;;;;;;16.63;10.50;;;;;;;16.13;100.00;100436.59;5031397;28;20132;-76
2022/09/08 05:09:20;;;;;;;13.25;9.43;;;;;;;16.77;100.00;100513.38;5030783;28;20108;-77
2022/09/08 05:11:45;;;;;;;12.52;9.90;;;;;;;16.77;100.00;100491.09;5031770;28;20033;-76
2022/09/08 05:14:11;;;;;;;21.98;10.95;;;;;;;16.96;100.00;100466.22;5030499;28;20121;-75
2022/09/08 05:16:36;;;;;;;16.80;10.70;;;;;;;17.30;100.00;100486.88;5030556;28;20037;-77
2022/09/08 05:19:04;;;;;;;12.13;10.63;;;;;;;17.40;100.00;100438.44;5031079;28;20116;-74
2022/09/08 05:21:33;;;;;;;15.27;10.88;;;;;;;17.52;100.00;100460.19;5031241;28;20053;-74
2022/09/08 05:24:00;;;;;;;18.50;10.75;;;;;;;17.40;100.00;100463.31;5031933;28;20037;-76
2022/09/08 05:26:26;;;;;;;24.92;14.05;;;;;;;17.78;100.00;100440.00;5031846;28;20033;-74
2022/09/08 05:28:52;;;;;;;17.42;11.25;;;;;;;18.93;100.00;100537.84;5031555;28;20091;-73
2022/09/08 05:31:20;;;;;;;19.08;11.05;;;;;;;18.76;100.00;100526.72;5030709;28;20036;-75
2022/09/08 05:33:46;;;;;;;19.70;10.77;;;;;;;19.02;100.00;100526.19;5031377;28;20477;-74
2022/09/08 05:36:15;;;;;;;20.77;11.38;;;;;;;19.09;100.00;100480.28;5030324;28;20061;-74
2022/09/08 05:38:41;;;;;;;20.33;11.95;;;;;;;19.15;100.00;100508.31;5031788;28;20030;-74
2022/09/08 05:41:07;;;;;;;20.88;12.18;;;;;;;18.97;100.00;100525.63;5030403;28;20116;-75
2022/09/08 05:43:32;;;;;;;18.65;11.98;;;;;;;19.52;100.00;100516.53;5031461;28;20504;-75
2022/09/08 05:45:58;;;;;;;20.05;11.30;;;;;;;19.52;100.00;100454.63;5031142;28;20032;-75
2022/09/08 05:48:23;;;;;;;18.92;11.10;;;;;;;19.20;100.00;100405.75;5031179;28;20037;-75
2022/09/08 05:50:49;;;;;;;17.30;10.27;;;;;;;19.96;100.00;100520.91;5031151;28;20037;-75
2022/09/08 05:53:14;;;;;;;27.67;11.50;;;;;;;20.11;100.00;100523.44;5031342;28;20046;-75
2022/09/08 05:55:41;;;;;;;18.77;10.10;;;;;;;20.09;100.00;100483.13;5029685;28;20412;-74
2022/09/08 05:58:07;;;;;;;28.65;10.75;;;;;;;20.08;100.00;100472.00;5031388;28;20034;-74
2022/09/08 06:00:33;;;;;;;23.98;10.25;;;;;;;20.17;100.00;100460.28;5031492;28;20021;-74
2022/09/08 06:02:59;;;;;;;28.00;9.85;;;;;;;21.07;100.00;100539.19;5031502;28;20040;-74
2022/09/08 06:05:24;;;;;;;14.93;9.10;;;;;;;20.30;100.00;100474.16;5031155;28;20037;-74
2022/09/08 06:07:50;;;;;;;14.15;8.70;;;;;;;19.96;100.00;100511.44;5031443;28;20160;-74
2022/09/08 06:10:17;;;;;;;18.02;9.25;;;;;;;20.41;100.00;100544.91;5031429;28;20509;-74
2022/09/08 06:12:44;;;;;;;14.13;9.15;;;;;;;20.41;100.00;100488.09;5030045;28;20139;-74
2022/09/08 06:15:10;;;;;;;15.25;8.18;;;;;;;20.16;100.00;100502.53;5031196;28;20076;-75
2022/09/08 06:17:37;;;;;;;10.40;8.30;;;;;;;20.81;100.00;100552.88;5031050;28;20079;-73
2022/09/08 06:20:04;;;;;;;11.70;7.10;;;;;;;21.59;100.00;100501.31;5029459;28;20057;-74
2022/09/08 06:22:32;;;;;;;9.75;6.93;;;;;;;20.89;100.00;100491.19;5031111;28;20033;-73
2022/09/08 06:24:58;;;;;;;13.38;6.93;;;;;;;22.00;100.00;100543.50;5030698;28;20029;-74
2022/09/08 06:27:42;;;;;;;12.57;6.22;;;;;;;20.54;100.00;100498.53;5034340;28;20041;-75
2022/09/08 06:30:16;;;;;;;8.15;6.15;;;;;;;21.73;100.00;100495.25;5051474;28;20594;-74
2022/09/08 06:32:58;;;;;;;7.38;5.68;;;;;;;21.25;100.00;100543.22;5054311;28;20033;-74
2022/09/08 06:35:33;;;;;;;9.10;6.15;;;;;;;21.53;100.00;100545.72;5054740;28;20033;-75
2022/09/08 06:38:14;;;;;;;9.10;5.68;;;;;;;22.30;100.00;100512.94;5055395;28;20090;-74
2022/09/08 06:40:47;;;;;;;8.53;6.17;;;;;;;22.14;100.00;100522.69;5054889;28;20033;-74
2022/09/08 06:43:18;;;;;;;7.18;5.63;;;;;;;22.49;100.00;100543.63;5055134;28;20398;-75
2022/09/08 06:45:49;;;;;;;8.40;6.20;;;;;;;22.31;100.00;100496.47;5053472;28;20041;-74
2022/09/08 06:48:33;;;;;;;11.57;5.80;;;;;;;23.37;100.00;100550.47;5054480;28;20033;-74
2022/09/08 06:51:25;;;;;;;9.93;6.50;;;;;;;21.42;100.00;100432.56;5054579;28;20262;-74
2022/09/08 06:54:09;;;;;;;8.93;6.45;;;;;;;22.88;100.00;100564.25;5054954;28;20060;-74
2022/09/08 06:56:37;;;;;;;11.52;5.72;;;;;;;23.94;100.00;100549.66;5053288;28;20064;-74
2022/09/08 06:59:18;;;;;;;9.82;5.97;;;;;;;22.80;100.00;100551.00;5054393;28;20075;-73
2022/09/08 07:01:49;;;;;;;12.60;5.90;;;;;;;23.36;100.00;100557.41;5054314;28;20102;-73
2022/09/08 07:04:45;;;;;;;7.40;5.97;;;;;;;23.67;100.00;100554.25;5054155;28;20044;-73
2022/09/08 07:07:32;;;;;;;7.47;5.07;;;;;;;23.64;100.00;100562.28;5054198;28;20025;-74
2022/09/08 07:09:57;;;;;;;7.70;5.03;;;;;;;23.56;100.00;100558.56;5054402;28;20025;-75
2022/09/08 07:12:41;;;;;;;9.05;4.97;;;;;;;23.12;100.00;100575.53;5052643;28;20116;-71
2022/09/08 07:15:26;;;;;;;6.90;5.18;;;;;;;23.62;100.00;100551.19;5053709;28;20039;-74
2022/09/08 07:18:19;;;;;;;7.32;5.25;;;;;;;23.62;100.00;100560.72;5053964;28;20035;-74
2022/09/08 07:20:45;;;;;;;6.10;4.70;;;;;;;23.77;100.00;100451.34;5054143;28;20033;-74
2022/09/08 07:23:21;;;;;;;9.00;4.82;;;;;;;22.50;100.00;100509.00;5053675;28;20028;-74
2022/09/08 07:25:56;;;;;;;8.40;4.75;;;;;;;23.41;100.00;100576.09;5054133;28;20048;-74
2022/09/08 07:28:25;;;;;;;10.40;5.25;;;;;;;24.83;100.00;100523.78;5054015;28;20033;-73
2022/09/08 07:31:05;;;;;;;7.28;4.75;;;;;;;24.63;100.00;100568.69;5053996;28;20025;-74
2022/09/08 07:33:36;;;;;;;6.95;4.88;;;;;;;24.76;100.00;100567.66;5053449;28;20064;-73
2022/09/08 07:36:25;;;;;;;7.40;5.10;;;;;;;25.15;100.00;100568.13;5053730;28;20095;-73
2022/09/08 07:38:57;;;;;;;7.70;5.03;;;;;;;24.96;100.00;100501.06;5048372;28;20037;-73
2022/09/08 07:41:37;;;;;;;;;;;;;;;25.18;100.00;100565.25;5052545;28;20040;-74
2022/09/08 07:44:14;;;;;;;9.88;5.35;;;;;;;24.38;100.00;100550.72;5053709;28;19920;-75
2022/09/08 07:47:00;;;;;;;12.75;5.38;;;;;;;25.46;100.00;100559.53;5052934;28;20025;-74
2022/09/08 07:49:49;;;;;;;13.48;5.40;;;;;;;26.34;100.00;100560.94;5053393;28;20032;-74
2022/09/08 07:52:45;;;;;;;9.18;4.88;;;;;;;25.06;100.00;100561.03;5053349;28;20040;-73
2022/09/08 07:55:26;;;;;;;8.27;5.00;;;;;;;24.27;100.00;100564.50;5051832;28;20064;-73
2022/09/08 07:58:00;;;;;;;11.93;5.15;;;;;;;25.70;100.00;100561.00;5052854;28;20115;-73
2022/09/08 08:00:40;;;;;;;8.07;4.80;;;;;;;25.16;100.00;100512.47;5052679;28;20029;-74
2022/09/08 08:03:20;;;;;;;7.85;5.15;;;;;;;24.75;100.00;100571.22;5052927;28;20087;-74
2022/09/08 08:05:58;;;;;;;5.40;4.73;;;;;;;25.33;100.00;100491.97;5052955;28;20029;-75
2022/09/08 08:08:41;;;;;;;9.57;5.03;;;;;;;25.21;100.00;100562.44;5053113;28;20502;-75
2022/09/08 08:11:45;;;;;;;7.88;4.28;;;;;;;26.37;100.00;100563.25;5052554;28;20216;-75
2022/09/08 08:14:28;;;;;;;9.80;4.80;;;;;;;25.51;100.00;100550.41;5041733;28;20403;-74
2022/09/08 08:17:15;;;;;;;6.72;4.53;;;;;;;26.43;100.00;100563.59;5052956;28;20025;-74
2022/09/08 08:19:47;;;;;;;7.13;4.35;;;;;;;26.72;100.00;100560.31;5052900;28;20029;-74
2022/09/08 08:22:38;;;;;;;5.32;4.57;;;;;;;26.41;100.00;100554.22;5051817;28;20045;-74
2022/09/08 08:25:22;;;;;;;10.40;5.30;;;;;;;26.31;100.00;100488.97;5050625;28;20036;-75
2022/09/08 08:28:02;;;;;;;9.43;4.80;;;;;;;26.84;100.00;100549.63;5052907;28;20120;-75
2022/09/08 08:30:28;;;;;;;9.05;4.70;;;;;;;26.35;94.52;100494.75;5051263;28;20083;-74
2022/09/08 08:32:57;;;;;;;9.45;4.53;;;;;;;26.04;99.81;100560.84;5052875;28;20499;-74
2022/09/08 08:35:22;;;;;;;8.40;4.70;;;;;;;26.53;97.71;100558.41;5052377;28;20040;-73
2022/09/08 08:37:51;;;;;;;8.90;4.97;;;;;;;27.07;91.03;100555.47;5052489;28;20025;-73
2022/09/08 08:40:33;;;;;;;8.57;4.70;;;;;;;26.39;84.29;100496.97;5051792;28;20024;-74
2022/09/08 08:43:10;;;;;;;;;;;;;;;26.91;86.76;100540.31;5053122;28;20456;-74
2022/09/08 08:46:00;;;;;;;10.48;4.15;;;;;;;27.35;76.72;100463.31;5051094;28;19971;-74
2022/09/08 08:48:47;;;;;;;10.40;5.07;;;;;;;28.00;76.52;100533.16;5050982;28;20024;-74
2022/09/08 08:51:42;;;;;;;7.47;4.78;;;;;;;26.86;80.67;100532.06;5052352;28;20036;-75
2022/09/08 08:54:46;;;;;;;8.68;5.20;;;;;;;27.13;83.02;100529.66;5032070;28;20049;-73
2022/09/08 08:57:21;;;;;;;8.65;4.50;;;;;;;26.75;76.59;100476.53;5051763;28;20074;-73
2022/09/08 08:59:52;;;;;;;8.38;4.05;;;;;;;27.02;65.40;100527.16;5050896;28;20028;-73
2022/09/08 09:02:37;;;;;;;9.18;4.40;;;;;;;27.20;75.55;100524.72;5051966;28;20120;-73
2022/09/08 09:05:05;;;;;;;6.85;4.43;;;;;;;27.20;74.52;100525.53;5051750;28;20040;-73
2022/09/08 09:08:08;;;;;;;6.75;4.00;;;;;;;27.44;73.56;100514.72;5050659;28;20035;-74
2022/09/08 09:10:58;;;;;;;9.52;4.72;;;;;;;27.31;70.17;100488.88;5050720;28;20528;-75
2022/09/08 09:14:02;;;;;;;8.07;4.55;;;;;;;27.93;64.39;100503.28;5052107;28;20510;-74
2022/09/08 09:17:06;;;;;;;6.90;4.13;;;;;;;27.57;65.73;100511.84;5049932;28;20148;-75
2022/09/08 09:19:49;;;;;;;8.23;4.20;;;;;;;26.99;71.88;100511.78;5051927;28;20032;-74
2022/09/08 09:22:28;;;;;;;7.53;4.38;;;;;;;27.61;66.41;100429.59;5051159;28;20033;-73
2022/09/08 09:25:33;;;;;;;8.25;4.15;;;;;;;28.14;65.55;100477.78;5049617;28;20094;-72
2022/09/08 09:27:58;;;;;;;11.15;4.40;;;;;;;28.07;67.31;100484.53;5049943;28;20040;-72
2022/09/08 09:30:37;;;;;;;7.07;4.30;;;;;;;27.43;66.24;100474.69;5051165;28;20033;-73
2022/09/08 09:33:15;;;;;;;6.63;4.20;;;;;;;27.29;70.30;100482.94;5051537;28;20029;-73
2022/09/08 09:36:01;;;;;;;6.93;4.20;;;;;;;27.47;65.13;100480.50;5051235;28;20103;-74
2022/09/08 09:38:30;;;;;;;8.50;4.30;;;;;;;26.80;71.07;100488.22;5051063;28;20025;-73
2022/09/08 09:41:40;;;;;;;7.05;4.32;;;;;;;27.72;66.20;100473.84;5049878;28;20055;-74
2022/09/08 09:44:38;;;;;;;6.60;4.40;;;;;;;27.89;72.39;100460.88;5044521;28;20040;-72
2022/09/08 09:47:38;;;;;;;8.23;4.43;;;;;;;27.38;63.80;100461.25;5051398;28;20066;-73
2022/09/08 09:50:24;;;;;;;12.38;4.00;;;;;;;28.52;57.98;100468.97;5050118;28;20031;-74
2022/09/08 09:53:14;;;;;;;6.38;4.30;;;;;;;28.16;59.67;100470.63;5049601;28;20434;-74
2022/09/08 09:56:11;;;;;;;6.57;4.28;;;;;;;28.41;59.13;100463.91;5049482;28;20093;-73
2022/09/08 09:58:57;;;;;;;11.18;4.60;;;;;;;28.58;58.93;100384.66;5049830;28;20115;-74
2022/09/08 10:01:41;;;;;;;8.32;4.60;;;;;;;28.96;66.83;100447.22;5050207;28;20040;-73
2022/09/08 10:04:28;;;;;;;5.60;4.43;;;;;;;29.01;61.29;100450.22;5050824;28;20029;-74
2022/09/08 10:07:17;;;;;;;7.93;4.60;;;;;;;28.83;59.75;100444.13;5051074;28;20033;-73
2022/09/08 10:10:01;;;;;;;6.65;4.20;;;;;;;29.46;55.97;100445.72;5051073;28;20025;-73
2022/09/08 10:12:35;;;;;;;9.98;4.40;;;;;;;29.64;54.93;100441.28;5051039;28;20171;-74
2022/09/08 10:15:32;;;;;;;7.32;4.13;;;;;;;29.17;51.84;100432.06;5049309;28;20116;-75
2022/09/08 10:18:33;;;;;;;6.95;3.88;;;;;;;29.24;52.25;100442.78;5049418;28;20025;-73
2022/09/08 10:21:17;;;;;;;6.57;3.83;;;;;;;29.42;50.78;100439.16;5028024;28;20025;-73
2022/09/08 10:24:08;;;;;;;6.03;3.80;;;;;;;28.73;55.45;100441.59;5048461;28;20411;-74
2022/09/08 10:26:55;;;;;;;7.60;3.78;;;;;;;28.77;52.63;100436.88;5049225;28;20043;-74
2022/09/08 10:29:57;;;;;;;5.20;3.50;;;;;;;28.12;53.25;100432.63;5050968;28;20112;-74
2022/09/08 10:32:47;;;;;;;4.40;3.42;;;;;;;29.67;54.02;100425.22;5050717;28;20029;-74
2022/09/08 10:35:37;;;;;;;6.53;3.88;;;;;;;27.62;54.22;100439.06;5050095;28;20403;-74
2022/09/08 10:38:17;;;;;;;6.50;3.50;;;;;;;30.03;50.56;100430.41;5049199;28;20109;-74
2022/09/08 10:40:55;;;;;;;7.22;3.80;;;;;;;28.84;53.23;100430.09;5051030;28;20075;-73
2022/09/08 10:43:32;;;;;;;7.63;3.65;;;;;;;29.73;52.05;100419.41;5050806;28;20052;-74
2022/09/08 10:46:33;;;;;;;6.07;3.60;;;;;;;29.54;54.68;100395.97;5050429;28;20106;-74
2022/09/08 10:49:36;;;;;;;7.55;4.00;;;;;;;30.87;49.91;100397.91;5050591;28;20025;-74
2022/09/08 10:52:23;;;;;;;9.48;3.65;;;;;;;30.73;48.78;100396.72;5050279;28;20119;-74
2022/09/08 10:55:27;;;;;;;6.28;3.55;;;;;;;29.09;50.09;100408.38;5050290;28;20033;-75
2022/09/08 10:58:23;;;;;;;9.65;3.75;;;;;;;29.71;48.19;100396.91;5050089;28;20463;-74
2022/09/08 11:01:13;;;;;;;7.22;3.90;;;;;;;29.85;48.85;100397.19;5050661;28;20499;-74
2022/09/08 11:04:00;;;;;;;8.52;3.75;;;;;;;29.78;48.49;100380.44;5049374;28;20029;-74
2022/09/08 11:07:03;;;;;;;6.28;3.40;;;;;;;30.06;47.37;100391.56;5049292;28;20032;-73
2022/09/08 11:09:51;;;;;;;5.38;4.32;;;;;;;30.84;45.52;100381.66;5050260;28;20533;-73
2022/09/08 11:12:22;;;;;;;11.63;3.97;;;;;;;29.55;49.38;100388.94;5049917;28;20682;-72
2022/09/08 11:15:27;;;;;;;6.47;3.60;;;;;;;29.90;47.57;100379.19;5052988;28;20116;-73
2022/09/08 11:18:17;;;;;;;5.70;3.58;;;;;;;29.69;47.36;100354.28;5051381;28;20041;-72
2022/09/08 11:20:53;;;;;;;4.43;3.70;;;;;;;29.70;50.45;100309.56;5053550;28;20033;-72
2022/09/08 11:24:15;;;;;;;4.97;4.40;;;;;;;29.35;52.33;100337.69;5053775;28;20031;-73
2022/09/08 11:27:06;;;;;;;6.65;3.85;;;;;;;30.37;48.57;100345.44;5031374;28;20083;-74
2022/09/08 11:29:36;;;;;;;6.68;3.47;;;;;;;29.29;50.59;100275.41;5031092;28;20064;-73
2022/09/08 11:32:29;;;;;;;7.53;3.80;;;;;;;30.81;46.83;100335.47;5048592;28;20041;-73
2022/09/08 11:35:20;;;;;;;5.65;4.00;;;;;;;29.72;50.33;100340.88;5052025;28;20033;-73
2022/09/08 11:38:10;;;;;;;5.03;3.58;;;;;;;30.66;47.74;100337.91;5051777;28;20483;-73
2022/09/08 11:40:35;;;;;;;4.28;3.63;;;;;;;28.67;49.69;100334.84;5053248;28;20127;-74
2022/09/08 11:43:35;;;;;;;8.05;3.80;;;;;;;30.41;46.84;100283.75;5052227;28;20507;-74
2022/09/08 11:46:51;;;;;;;4.75;3.65;;;;;;;30.01;47.24;100322.16;5048834;28;20064;-73
2022/09/08 11:49:36;;;;;;;4.85;3.70;;;;;;;30.05;48.15;100326.13;5043208;28;20179;-74
2022/09/08 11:52:35;;;;;;;6.13;3.45;;;;;;;30.38;44.88;100318.22;5052779;28;20440;-73
2022/09/08 11:55:37;;;;;;;4.53;3.33;;;;;;;29.82;48.20;100321.44;5053631;28;20553;-74